Terminal Aerodrome Forecast
Issued by NWS

Current Version | Previous Version | Graphics & Text | Print | Product List | Glossary On
Versions: 1 2 3 4 5 6 7 8 9 10 11 12 13 14 15 16 17 18 19
994
FTUS41 KPBZ 240858 AAB
TAFHLG
TAF AMD
KHLG 240858Z 2409/2506 VRB02KT 1 1/2SM BR SCT003
      TEMPO 2409/2412 1/2SM FG VV002
     FM241300 27008KT P6SM SKC=

USA.gov is the U.S. government's official web portal to all federal, state and local government web resources and services.